sensor_id;sensor_type;location;lat;lon;timestamp;P1;durP1;ratioP1;P2;durP2;ratioP2
74152;SDS011;62505;46.070;14.492;2023-11-19T00:01:04;15.75;;;7.60;;
74152;SDS011;62505;46.070;14.492;2023-11-19T00:03:31;16.83;;;7.70;;
74152;SDS011;62505;46.070;14.492;2023-11-19T00:06:00;15.18;;;7.45;;
74152;SDS011;62505;46.070;14.492;2023-11-19T00:08:29;15.90;;;8.38;;
74152;SDS011;62505;46.070;14.492;2023-11-19T00:10:56;13.98;;;6.97;;
74152;SDS011;62505;46.070;14.492;2023-11-19T00:13:23;13.45;;;7.28;;
74152;SDS011;62505;46.070;14.492;2023-11-19T00:15:51;12.68;;;6.90;;
74152;SDS011;62505;46.070;14.492;2023-11-19T00:18:18;16.58;;;7.47;;
74152;SDS011;62505;46.070;14.492;2023-11-19T00:20:45;14.05;;;6.18;;
74152;SDS011;62505;46.070;14.492;2023-11-19T00:23:12;11.93;;;7.30;;
74152;SDS011;62505;46.070;14.492;2023-11-19T00:25:41;15.65;;;7.18;;
74152;SDS011;62505;46.070;14.492;2023-11-19T00:28:08;17.92;;;8.05;;
74152;SDS011;62505;46.070;14.492;2023-11-19T00:30:35;17.55;;;7.88;;
74152;SDS011;62505;46.070;14.492;2023-11-19T00:33:02;12.40;;;7.10;;
74152;SDS011;62505;46.070;14.492;2023-11-19T00:35:29;14.88;;;7.75;;
74152;SDS011;62505;46.070;14.492;2023-11-19T00:37:57;16.58;;;7.65;;
74152;SDS011;62505;46.070;14.492;2023-11-19T00:40:24;14.75;;;7.70;;
74152;SDS011;62505;46.070;14.492;2023-11-19T00:42:52;15.82;;;7.60;;
74152;SDS011;62505;46.070;14.492;2023-11-19T00:45:19;14.20;;;7.35;;
74152;SDS011;62505;46.070;14.492;2023-11-19T00:47:46;11.82;;;6.88;;
74152;SDS011;62505;46.070;14.492;2023-11-19T00:50:13;13.48;;;7.35;;
74152;SDS011;62505;46.070;14.492;2023-11-19T00:52:40;14.55;;;7.32;;
74152;SDS011;62505;46.070;14.492;2023-11-19T00:55:07;15.95;;;7.35;;
74152;SDS011;62505;46.070;14.492;2023-11-19T00:57:35;15.98;;;7.45;;
74152;SDS011;62505;46.070;14.492;2023-11-19T01:00:03;13.02;;;7.47;;
74152;SDS011;62505;46.070;14.492;2023-11-19T01:02:34;13.32;;;7.72;;
74152;SDS011;62505;46.070;14.492;2023-11-19T01:05:01;16.45;;;7.60;;
74152;SDS011;62505;46.070;14.492;2023-11-19T01:07:28;15.13;;;6.97;;
74152;SDS011;62505;46.070;14.492;2023-11-19T01:09:55;15.45;;;8.38;;
74152;SDS011;62505;46.070;14.492;2023-11-19T01:12:22;12.73;;;7.65;;
74152;SDS011;62505;46.070;14.492;2023-11-19T01:14:49;11.18;;;7.00;;
74152;SDS011;62505;46.070;14.492;2023-11-19T01:17:17;15.50;;;7.10;;
74152;SDS011;62505;46.070;14.492;2023-11-19T01:19:44;16.27;;;7.68;;
74152;SDS011;62505;46.070;14.492;2023-11-19T01:22:11;19.88;;;7.43;;
74152;SDS011;62505;46.070;14.492;2023-11-19T01:24:38;14.32;;;7.65;;
74152;SDS011;62505;46.070;14.492;2023-11-19T01:27:05;12.20;;;7.15;;
74152;SDS011;62505;46.070;14.492;2023-11-19T01:29:32;11.18;;;6.97;;
74152;SDS011;62505;46.070;14.492;2023-11-19T01:31:59;12.20;;;7.22;;
74152;SDS011;62505;46.070;14.492;2023-11-19T01:34:27;11.48;;;7.00;;
74152;SDS011;62505;46.070;14.492;2023-11-19T01:36:54;14.48;;;6.68;;
74152;SDS011;62505;46.070;14.492;2023-11-19T01:39:21;13.85;;;7.20;;
74152;SDS011;62505;46.070;14.492;2023-11-19T01:41:48;14.07;;;7.40;;
74152;SDS011;62505;46.070;14.492;2023-11-19T01:44:15;12.32;;;7.32;;
74152;SDS011;62505;46.070;14.492;2023-11-19T01:46:43;15.68;;;7.05;;
74152;SDS011;62505;46.070;14.492;2023-11-19T01:49:12;13.68;;;7.13;;
74152;SDS011;62505;46.070;14.492;2023-11-19T01:51:43;14.40;;;7.22;;
74152;SDS011;62505;46.070;14.492;2023-11-19T01:54:10;12.13;;;6.78;;
74152;SDS011;62505;46.070;14.492;2023-11-19T01:56:40;15.68;;;6.90;;
74152;SDS011;62505;46.070;14.492;2023-11-19T01:59:08;12.32;;;6.70;;
74152;SDS011;62505;46.070;14.492;2023-11-19T02:01:38;12.32;;;6.95;;
74152;SDS011;62505;46.070;14.492;2023-11-19T02:04:06;16.13;;;7.57;;
74152;SDS011;62505;46.070;14.492;2023-11-19T02:06:34;12.15;;;6.78;;
74152;SDS011;62505;46.070;14.492;2023-11-19T02:09:04;13.57;;;7.20;;
74152;SDS011;62505;46.070;14.492;2023-11-19T02:11:33;15.70;;;7.70;;
74152;SDS011;62505;46.070;14.492;2023-11-19T02:14:00;14.05;;;7.45;;
74152;SDS011;62505;46.070;14.492;2023-11-19T02:16:28;14.63;;;7.13;;
74152;SDS011;62505;46.070;14.492;2023-11-19T02:18:55;16.88;;;7.60;;
74152;SDS011;62505;46.070;14.492;2023-11-19T02:21:22;13.10;;;7.13;;
74152;SDS011;62505;46.070;14.492;2023-11-19T02:23:49;14.77;;;7.40;;
74152;SDS011;62505;46.070;14.492;2023-11-19T02:26:22;11.95;;;6.65;;
74152;SDS011;62505;46.070;14.492;2023-11-19T02:28:56;12.40;;;7.20;;
74152;SDS011;62505;46.070;14.492;2023-11-19T02:31:23;13.13;;;7.43;;
74152;SDS011;62505;46.070;14.492;2023-11-19T02:33:52;11.98;;;7.10;;
74152;SDS011;62505;46.070;14.492;2023-11-19T02:36:20;13.77;;;6.90;;
74152;SDS011;62505;46.070;14.492;2023-11-19T02:38:47;11.85;;;7.35;;
74152;SDS011;62505;46.070;14.492;2023-11-19T02:41:14;13.23;;;7.40;;
74152;SDS011;62505;46.070;14.492;2023-11-19T02:43:41;12.45;;;7.60;;
74152;SDS011;62505;46.070;14.492;2023-11-19T02:46:10;11.57;;;6.65;;
74152;SDS011;62505;46.070;14.492;2023-11-19T02:48:37;14.13;;;7.88;;
74152;SDS011;62505;46.070;14.492;2023-11-19T02:51:04;11.65;;;6.93;;
74152;SDS011;62505;46.070;14.492;2023-11-19T02:53:34;12.93;;;7.03;;
74152;SDS011;62505;46.070;14.492;2023-11-19T02:56:02;13.50;;;7.25;;
74152;SDS011;62505;46.070;14.492;2023-11-19T02:58:42;12.18;;;7.25;;
74152;SDS011;62505;46.070;14.492;2023-11-19T03:01:11;13.50;;;7.10;;
74152;SDS011;62505;46.070;14.492;2023-11-19T03:03:48;11.05;;;6.57;;
74152;SDS011;62505;46.070;14.492;2023-11-19T03:06:19;13.43;;;7.13;;
74152;SDS011;62505;46.070;14.492;2023-11-19T03:08:47;15.68;;;6.65;;
74152;SDS011;62505;46.070;14.492;2023-11-19T03:11:14;15.27;;;7.40;;
74152;SDS011;62505;46.070;14.492;2023-11-19T03:13:41;11.98;;;6.55;;
74152;SDS011;62505;46.070;14.492;2023-11-19T03:16:08;12.35;;;7.60;;
74152;SDS011;62505;46.070;14.492;2023-11-19T03:18:37;14.15;;;6.40;;
74152;SDS011;62505;46.070;14.492;2023-11-19T03:21:04;13.60;;;7.45;;
74152;SDS011;62505;46.070;14.492;2023-11-19T03:23:32;13.50;;;7.10;;
74152;SDS011;62505;46.070;14.492;2023-11-19T03:26:00;14.00;;;7.07;;
74152;SDS011;62505;46.070;14.492;2023-11-19T03:28:30;12.77;;;6.65;;
74152;SDS011;62505;46.070;14.492;2023-11-19T03:30:57;11.23;;;6.93;;
74152;SDS011;62505;46.070;14.492;2023-11-19T03:33:26;13.23;;;6.93;;
74152;SDS011;62505;46.070;14.492;2023-11-19T03:35:53;11.95;;;6.97;;
74152;SDS011;62505;46.070;14.492;2023-11-19T03:38:21;17.67;;;7.15;;
74152;SDS011;62505;46.070;14.492;2023-11-19T03:40:49;11.48;;;6.63;;
74152;SDS011;62505;46.070;14.492;2023-11-19T03:43:16;17.15;;;7.55;;
74152;SDS011;62505;46.070;14.492;2023-11-19T03:45:44;11.38;;;6.53;;
74152;SDS011;62505;46.070;14.492;2023-11-19T03:48:11;11.30;;;6.95;;
74152;SDS011;62505;46.070;14.492;2023-11-19T03:50:39;13.90;;;7.50;;
74152;SDS011;62505;46.070;14.492;2023-11-19T03:53:06;12.63;;;6.15;;
74152;SDS011;62505;46.070;14.492;2023-11-19T03:55:33;12.90;;;6.72;;
74152;SDS011;62505;46.070;14.492;2023-11-19T03:58:00;9.23;;;6.40;;
74152;SDS011;62505;46.070;14.492;2023-11-19T04:00:27;13.07;;;6.38;;
74152;SDS011;62505;46.070;14.492;2023-11-19T04:02:54;11.98;;;6.72;;
74152;SDS011;62505;46.070;14.492;2023-11-19T04:05:21;13.20;;;6.65;;
74152;SDS011;62505;46.070;14.492;2023-11-19T04:07:49;12.90;;;7.07;;
74152;SDS011;62505;46.070;14.492;2023-11-19T04:10:16;11.73;;;6.93;;
74152;SDS011;62505;46.070;14.492;2023-11-19T04:12:43;12.77;;;6.65;;
74152;SDS011;62505;46.070;14.492;2023-11-19T04:15:10;12.18;;;6.45;;
74152;SDS011;62505;46.070;14.492;2023-11-19T04:17:38;12.32;;;6.50;;
74152;SDS011;62505;46.070;14.492;2023-11-19T04:20:05;12.25;;;6.43;;
74152;SDS011;62505;46.070;14.492;2023-11-19T04:22:36;11.60;;;6.30;;
74152;SDS011;62505;46.070;14.492;2023-11-19T04:25:05;10.40;;;6.65;;
74152;SDS011;62505;46.070;14.492;2023-11-19T04:27:32;11.40;;;6.30;;
74152;SDS011;62505;46.070;14.492;2023-11-19T04:29:59;14.50;;;6.50;;
74152;SDS011;62505;46.070;14.492;2023-11-19T04:32:27;13.18;;;6.93;;
74152;SDS011;62505;46.070;14.492;2023-11-19T04:34:54;12.57;;;6.22;;
74152;SDS011;62505;46.070;14.492;2023-11-19T04:37:21;11.80;;;6.93;;
74152;SDS011;62505;46.070;14.492;2023-11-19T04:39:48;11.38;;;6.82;;
74152;SDS011;62505;46.070;14.492;2023-11-19T04:42:17;10.30;;;6.15;;
74152;SDS011;62505;46.070;14.492;2023-11-19T04:44:44;9.73;;;5.93;;
74152;SDS011;62505;46.070;14.492;2023-11-19T04:47:11;10.70;;;6.25;;
74152;SDS011;62505;46.070;14.492;2023-11-19T04:49:39;10.88;;;6.22;;
74152;SDS011;62505;46.070;14.492;2023-11-19T04:52:08;8.82;;;6.00;;
74152;SDS011;62505;46.070;14.492;2023-11-19T04:54:35;12.88;;;6.68;;
74152;SDS011;62505;46.070;14.492;2023-11-19T04:57:02;13.13;;;6.93;;
74152;SDS011;62505;46.070;14.492;2023-11-19T04:59:30;11.10;;;6.90;;
74152;SDS011;62505;46.070;14.492;2023-11-19T05:02:00;17.73;;;6.38;;
74152;SDS011;62505;46.070;14.492;2023-11-19T05:04:27;12.70;;;6.15;;
74152;SDS011;62505;46.070;14.492;2023-11-19T05:06:54;10.30;;;6.20;;
74152;SDS011;62505;46.070;14.492;2023-11-19T05:09:21;12.45;;;6.82;;
74152;SDS011;62505;46.070;14.492;2023-11-19T05:11:48;11.57;;;6.68;;
74152;SDS011;62505;46.070;14.492;2023-11-19T05:14:15;11.25;;;6.78;;
74152;SDS011;62505;46.070;14.492;2023-11-19T05:16:45;12.05;;;6.57;;
74152;SDS011;62505;46.070;14.492;2023-11-19T05:19:12;9.55;;;6.05;;
74152;SDS011;62505;46.070;14.492;2023-11-19T05:21:41;9.18;;;6.18;;
74152;SDS011;62505;46.070;14.492;2023-11-19T05:24:08;9.27;;;6.47;;
74152;SDS011;62505;46.070;14.492;2023-11-19T05:26:36;9.15;;;5.72;;
74152;SDS011;62505;46.070;14.492;2023-11-19T05:29:04;10.60;;;6.70;;
74152;SDS011;62505;46.070;14.492;2023-11-19T05:31:31;9.75;;;6.25;;
74152;SDS011;62505;46.070;14.492;2023-11-19T05:33:59;9.63;;;5.93;;
74152;SDS011;62505;46.070;14.492;2023-11-19T05:36:26;10.43;;;6.55;;
74152;SDS011;62505;46.070;14.492;2023-11-19T05:38:54;13.15;;;6.22;;
74152;SDS011;62505;46.070;14.492;2023-11-19T05:41:21;8.30;;;5.65;;
74152;SDS011;62505;46.070;14.492;2023-11-19T05:43:48;10.63;;;6.20;;
74152;SDS011;62505;46.070;14.492;2023-11-19T05:46:14;10.27;;;5.90;;
74152;SDS011;62505;46.070;14.492;2023-11-19T05:48:41;9.27;;;6.05;;
74152;SDS011;62505;46.070;14.492;2023-11-19T05:51:12;11.07;;;6.13;;
74152;SDS011;62505;46.070;14.492;2023-11-19T05:53:40;8.80;;;6.30;;
74152;SDS011;62505;46.070;14.492;2023-11-19T05:56:08;12.10;;;6.07;;
74152;SDS011;62505;46.070;14.492;2023-11-19T05:58:35;10.63;;;6.38;;
74152;SDS011;62505;46.070;14.492;2023-11-19T06:01:02;10.77;;;5.72;;
74152;SDS011;62505;46.070;14.492;2023-11-19T06:03:32;11.20;;;5.97;;
74152;SDS011;62505;46.070;14.492;2023-11-19T06:05:59;10.75;;;6.45;;
74152;SDS011;62505;46.070;14.492;2023-11-19T06:08:27;9.13;;;5.97;;
74152;SDS011;62505;46.070;14.492;2023-11-19T06:10:55;15.07;;;7.50;;
74152;SDS011;62505;46.070;14.492;2023-11-19T06:13:22;15.50;;;6.38;;
74152;SDS011;62505;46.070;14.492;2023-11-19T06:15:50;11.60;;;5.93;;
74152;SDS011;62505;46.070;14.492;2023-11-19T06:18:17;13.05;;;6.40;;
74152;SDS011;62505;46.070;14.492;2023-11-19T06:20:45;12.15;;;6.55;;
74152;SDS011;62505;46.070;14.492;2023-11-19T06:23:12;14.93;;;6.30;;
74152;SDS011;62505;46.070;14.492;2023-11-19T06:25:41;11.25;;;5.63;;
74152;SDS011;62505;46.070;14.492;2023-11-19T06:28:08;11.38;;;6.25;;
74152;SDS011;62505;46.070;14.492;2023-11-19T06:30:35;10.40;;;5.97;;
74152;SDS011;62505;46.070;14.492;2023-11-19T06:33:02;11.90;;;6.22;;
74152;SDS011;62505;46.070;14.492;2023-11-19T06:35:29;11.48;;;6.45;;
74152;SDS011;62505;46.070;14.492;2023-11-19T06:38:01;10.57;;;5.78;;
74152;SDS011;62505;46.070;14.492;2023-11-19T06:40:29;12.70;;;6.20;;
74152;SDS011;62505;46.070;14.492;2023-11-19T06:42:59;15.25;;;7.05;;
74152;SDS011;62505;46.070;14.492;2023-11-19T06:45:27;17.63;;;7.03;;
74152;SDS011;62505;46.070;14.492;2023-11-19T06:47:54;18.75;;;7.15;;
74152;SDS011;62505;46.070;14.492;2023-11-19T06:50:21;18.52;;;6.40;;
74152;SDS011;62505;46.070;14.492;2023-11-19T06:52:49;30.88;;;7.28;;
74152;SDS011;62505;46.070;14.492;2023-11-19T06:55:15;14.77;;;6.97;;
74152;SDS011;62505;46.070;14.492;2023-11-19T06:57:42;15.82;;;6.60;;
74152;SDS011;62505;46.070;14.492;2023-11-19T07:00:12;11.95;;;6.10;;
74152;SDS011;62505;46.070;14.492;2023-11-19T07:02:39;13.95;;;6.15;;
74152;SDS011;62505;46.070;14.492;2023-11-19T07:05:06;19.08;;;5.88;;
74152;SDS011;62505;46.070;14.492;2023-11-19T07:07:34;20.52;;;7.88;;
74152;SDS011;62505;46.070;14.492;2023-11-19T07:10:01;17.98;;;7.28;;
74152;SDS011;62505;46.070;14.492;2023-11-19T07:12:29;17.45;;;6.72;;
74152;SDS011;62505;46.070;14.492;2023-11-19T07:14:56;14.07;;;6.72;;
74152;SDS011;62505;46.070;14.492;2023-11-19T07:17:25;23.60;;;7.90;;
74152;SDS011;62505;46.070;14.492;2023-11-19T07:19:52;18.25;;;6.30;;
74152;SDS011;62505;46.070;14.492;2023-11-19T07:22:19;14.60;;;5.90;;
74152;SDS011;62505;46.070;14.492;2023-11-19T07:24:46;14.48;;;6.20;;
74152;SDS011;62505;46.070;14.492;2023-11-19T07:27:13;13.05;;;6.32;;
74152;SDS011;62505;46.070;14.492;2023-11-19T07:29:40;14.43;;;6.10;;
74152;SDS011;62505;46.070;14.492;2023-11-19T07:32:09;10.93;;;5.85;;
74152;SDS011;62505;46.070;14.492;2023-11-19T07:34:38;17.73;;;6.72;;
74152;SDS011;62505;46.070;14.492;2023-11-19T07:37:05;16.20;;;6.45;;
74152;SDS011;62505;46.070;14.492;2023-11-19T07:39:32;18.33;;;6.50;;
74152;SDS011;62505;46.070;14.492;2023-11-19T07:42:00;16.67;;;6.28;;
74152;SDS011;62505;46.070;14.492;2023-11-19T07:44:27;12.13;;;6.05;;
74152;SDS011;62505;46.070;14.492;2023-11-19T07:46:54;13.75;;;5.85;;
74152;SDS011;62505;46.070;14.492;2023-11-19T07:49:21;15.90;;;6.55;;
74152;SDS011;62505;46.070;14.492;2023-11-19T07:51:49;12.43;;;5.88;;
74152;SDS011;62505;46.070;14.492;2023-11-19T07:54:17;11.27;;;6.03;;
74152;SDS011;62505;46.070;14.492;2023-11-19T07:56:43;15.07;;;6.32;;
74152;SDS011;62505;46.070;14.492;2023-11-19T07:59:10;14.00;;;6.45;;
74152;SDS011;62505;46.070;14.492;2023-11-19T08:01:37;14.90;;;6.35;;
74152;SDS011;62505;46.070;14.492;2023-11-19T08:04:04;14.05;;;6.05;;
74152;SDS011;62505;46.070;14.492;2023-11-19T08:06:33;18.27;;;6.53;;
74152;SDS011;62505;46.070;14.492;2023-11-19T08:09:02;17.42;;;6.25;;
74152;SDS011;62505;46.070;14.492;2023-11-19T08:11:30;14.00;;;6.40;;
74152;SDS011;62505;46.070;14.492;2023-11-19T08:13:57;10.10;;;5.72;;
74152;SDS011;62505;46.070;14.492;2023-11-19T08:16:24;13.63;;;6.28;;
74152;SDS011;62505;46.070;14.492;2023-11-19T08:18:53;11.30;;;5.97;;
74152;SDS011;62505;46.070;14.492;2023-11-19T08:21:23;14.13;;;6.22;;
74152;SDS011;62505;46.070;14.492;2023-11-19T08:23:52;10.63;;;5.68;;
74152;SDS011;62505;46.070;14.492;2023-11-19T08:26:20;9.40;;;5.95;;
74152;SDS011;62505;46.070;14.492;2023-11-19T08:28:47;10.57;;;6.00;;
74152;SDS011;62505;46.070;14.492;2023-11-19T08:31:14;12.25;;;6.22;;
74152;SDS011;62505;46.070;14.492;2023-11-19T08:33:41;10.98;;;5.57;;
74152;SDS011;62505;46.070;14.492;2023-11-19T08:36:08;10.20;;;5.57;;
74152;SDS011;62505;46.070;14.492;2023-11-19T08:38:41;13.57;;;6.05;;
74152;SDS011;62505;46.070;14.492;2023-11-19T08:41:08;14.73;;;6.93;;
74152;SDS011;62505;46.070;14.492;2023-11-19T08:43:36;15.02;;;6.05;;
74152;SDS011;62505;46.070;14.492;2023-11-19T08:46:05;11.40;;;6.07;;
74152;SDS011;62505;46.070;14.492;2023-11-19T08:48:36;9.13;;;5.30;;
74152;SDS011;62505;46.070;14.492;2023-11-19T08:51:05;10.07;;;5.88;;
74152;SDS011;62505;46.070;14.492;2023-11-19T08:53:32;12.18;;;6.18;;
74152;SDS011;62505;46.070;14.492;2023-11-19T08:55:59;14.32;;;6.38;;
74152;SDS011;62505;46.070;14.492;2023-11-19T08:58:27;15.57;;;6.05;;
74152;SDS011;62505;46.070;14.492;2023-11-19T09:00:57;13.82;;;6.45;;
74152;SDS011;62505;46.070;14.492;2023-11-19T09:03:24;10.55;;;5.72;;
74152;SDS011;62505;46.070;14.492;2023-11-19T09:05:51;13.80;;;6.72;;
74152;SDS011;62505;46.070;14.492;2023-11-19T09:08:18;13.48;;;5.90;;
74152;SDS011;62505;46.070;14.492;2023-11-19T09:10:45;10.98;;;5.40;;
74152;SDS011;62505;46.070;14.492;2023-11-19T09:13:12;12.82;;;6.15;;
74152;SDS011;62505;46.070;14.492;2023-11-19T09:15:39;11.65;;;5.28;;
74152;SDS011;62505;46.070;14.492;2023-11-19T09:18:08;11.05;;;5.90;;
74152;SDS011;62505;46.070;14.492;2023-11-19T09:20:35;10.55;;;5.15;;
74152;SDS011;62505;46.070;14.492;2023-11-19T09:23:03;9.13;;;5.43;;
74152;SDS011;62505;46.070;14.492;2023-11-19T09:25:31;10.88;;;5.70;;
74152;SDS011;62505;46.070;14.492;2023-11-19T09:27:58;11.77;;;6.25;;
74152;SDS011;62505;46.070;14.492;2023-11-19T09:30:26;9.75;;;6.00;;
74152;SDS011;62505;46.070;14.492;2023-11-19T09:32:53;8.35;;;5.40;;
74152;SDS011;62505;46.070;14.492;2023-11-19T09:35:21;9.85;;;5.07;;
74152;SDS011;62505;46.070;14.492;2023-11-19T09:37:48;12.00;;;5.88;;
74152;SDS011;62505;46.070;14.492;2023-11-19T09:40:15;12.10;;;6.28;;
74152;SDS011;62505;46.070;14.492;2023-11-19T09:42:43;7.82;;;5.40;;
74152;SDS011;62505;46.070;14.492;2023-11-19T09:45:12;12.38;;;5.90;;
74152;SDS011;62505;46.070;14.492;2023-11-19T09:47:43;9.48;;;5.25;;
74152;SDS011;62505;46.070;14.492;2023-11-19T09:50:12;8.13;;;5.60;;
74152;SDS011;62505;46.070;14.492;2023-11-19T09:52:43;9.20;;;5.50;;
74152;SDS011;62505;46.070;14.492;2023-11-19T09:55:11;11.52;;;5.00;;
74152;SDS011;62505;46.070;14.492;2023-11-19T09:57:38;10.48;;;5.65;;
74152;SDS011;62505;46.070;14.492;2023-11-19T10:00:07;9.27;;;5.78;;
74152;SDS011;62505;46.070;14.492;2023-11-19T10:02:36;8.93;;;5.80;;
74152;SDS011;62505;46.070;14.492;2023-11-19T10:05:04;9.25;;;5.30;;
74152;SDS011;62505;46.070;14.492;2023-11-19T10:07:33;8.80;;;4.93;;
74152;SDS011;62505;46.070;14.492;2023-11-19T10:10:01;8.82;;;5.38;;
74152;SDS011;62505;46.070;14.492;2023-11-19T10:12:29;9.57;;;5.40;;
74152;SDS011;62505;46.070;14.492;2023-11-19T10:14:57;9.25;;;5.40;;
74152;SDS011;62505;46.070;14.492;2023-11-19T10:17:27;9.75;;;4.95;;
74152;SDS011;62505;46.070;14.492;2023-11-19T10:19:55;9.15;;;5.25;;
74152;SDS011;62505;46.070;14.492;2023-11-19T10:22:22;8.88;;;5.30;;
74152;SDS011;62505;46.070;14.492;2023-11-19T10:24:49;11.10;;;5.50;;
74152;SDS011;62505;46.070;14.492;2023-11-19T10:27:18;8.75;;;5.00;;
74152;SDS011;62505;46.070;14.492;2023-11-19T10:29:45;10.70;;;5.10;;
74152;SDS011;62505;46.070;14.492;2023-11-19T10:32:12;10.52;;;5.63;;
74152;SDS011;62505;46.070;14.492;2023-11-19T10:34:40;9.63;;;5.60;;
74152;SDS011;62505;46.070;14.492;2023-11-19T10:37:08;8.20;;;5.22;;
74152;SDS011;62505;46.070;14.492;2023-11-19T10:39:53;9.25;;;5.43;;
74152;SDS011;62505;46.070;14.492;2023-11-19T10:42:22;8.68;;;5.45;;
74152;SDS011;62505;46.070;14.492;2023-11-19T10:44:49;8.63;;;5.35;;
74152;SDS011;62505;46.070;14.492;2023-11-19T10:47:18;11.18;;;5.53;;
74152;SDS011;62505;46.070;14.492;2023-11-19T10:49:47;8.05;;;5.60;;
74152;SDS011;62505;46.070;14.492;2023-11-19T10:52:15;10.15;;;5.20;;
74152;SDS011;62505;46.070;14.492;2023-11-19T10:54:45;11.57;;;5.40;;
74152;SDS011;62505;46.070;14.492;2023-11-19T10:57:19;7.82;;;4.68;;
74152;SDS011;62505;46.070;14.492;2023-11-19T10:59:48;8.30;;;5.20;;
74152;SDS011;62505;46.070;14.492;2023-11-19T11:02:19;8.27;;;5.72;;
74152;SDS011;62505;46.070;14.492;2023-11-19T11:04:50;7.70;;;4.80;;
74152;SDS011;62505;46.070;14.492;2023-11-19T11:07:18;9.52;;;5.00;;
74152;SDS011;62505;46.070;14.492;2023-11-19T11:09:51;8.38;;;5.18;;
74152;SDS011;62505;46.070;14.492;2023-11-19T11:12:19;8.70;;;5.28;;
74152;SDS011;62505;46.070;14.492;2023-11-19T11:14:51;7.88;;;4.95;;
74152;SDS011;62505;46.070;14.492;2023-11-19T11:17:20;8.68;;;5.00;;
74152;SDS011;62505;46.070;14.492;2023-11-19T11:19:52;7.70;;;5.10;;
74152;SDS011;62505;46.070;14.492;2023-11-19T11:22:19;9.48;;;4.93;;
74152;SDS011;62505;46.070;14.492;2023-11-19T11:24:56;8.55;;;5.32;;
74152;SDS011;62505;46.070;14.492;2023-11-19T11:30:49;6.40;;;4.93;;
74152;SDS011;62505;46.070;14.492;2023-11-19T11:33:33;7.80;;;5.20;;
74152;SDS011;62505;46.070;14.492;2023-11-19T11:36:12;8.10;;;4.57;;
74152;SDS011;62505;46.070;14.492;2023-11-19T11:38:47;8.02;;;5.20;;
74152;SDS011;62505;46.070;14.492;2023-11-19T11:41:15;8.70;;;4.95;;
74152;SDS011;62505;46.070;14.492;2023-11-19T11:43:44;6.80;;;4.72;;
74152;SDS011;62505;46.070;14.492;2023-11-19T11:49:13;8.82;;;5.13;;
74152;SDS011;62505;46.070;14.492;2023-11-19T11:52:00;7.13;;;4.72;;
74152;SDS011;62505;46.070;14.492;2023-11-19T11:54:28;9.73;;;5.22;;
74152;SDS011;62505;46.070;14.492;2023-11-19T11:59:50;8.32;;;5.18;;
74152;SDS011;62505;46.070;14.492;2023-11-19T12:02:18;7.43;;;4.95;;
74152;SDS011;62505;46.070;14.492;2023-11-19T12:04:51;6.07;;;4.63;;
74152;SDS011;62505;46.070;14.492;2023-11-19T12:07:19;7.78;;;5.05;;
74152;SDS011;62505;46.070;14.492;2023-11-19T12:09:47;7.82;;;4.88;;
74152;SDS011;62505;46.070;14.492;2023-11-19T12:12:21;6.55;;;4.35;;
74152;SDS011;62505;46.070;14.492;2023-11-19T12:17:36;6.50;;;4.78;;
74152;SDS011;62505;46.070;14.492;2023-11-19T12:20:17;12.70;;;5.53;;
74152;SDS011;62505;46.070;14.492;2023-11-19T12:22:45;7.78;;;4.97;;
74152;SDS011;62505;46.070;14.492;2023-11-19T12:25:14;6.53;;;4.82;;
74152;SDS011;62505;46.070;14.492;2023-11-19T12:27:43;7.57;;;5.10;;
74152;SDS011;62505;46.070;14.492;2023-11-19T12:30:10;7.05;;;4.68;;
74152;SDS011;62505;46.070;14.492;2023-11-19T12:32:38;6.47;;;4.60;;
74152;SDS011;62505;46.070;14.492;2023-11-19T12:35:06;7.90;;;4.90;;
74152;SDS011;62505;46.070;14.492;2023-11-19T12:37:40;6.43;;;4.65;;
74152;SDS011;62505;46.070;14.492;2023-11-19T12:40:14;7.85;;;4.85;;
74152;SDS011;62505;46.070;14.492;2023-11-19T12:42:42;7.70;;;4.90;;
74152;SDS011;62505;46.070;14.492;2023-11-19T12:45:09;7.95;;;5.35;;
74152;SDS011;62505;46.070;14.492;2023-11-19T12:47:37;9.10;;;4.63;;
74152;SDS011;62505;46.070;14.492;2023-11-19T12:50:05;7.97;;;5.05;;
74152;SDS011;62505;46.070;14.492;2023-11-19T12:52:33;8.32;;;4.80;;
74152;SDS011;62505;46.070;14.492;2023-11-19T12:55:02;8.40;;;5.25;;
74152;SDS011;62505;46.070;14.492;2023-11-19T12:57:35;7.97;;;5.20;;
74152;SDS011;62505;46.070;14.492;2023-11-19T13:00:04;7.15;;;4.57;;
74152;SDS011;62505;46.070;14.492;2023-11-19T13:02:44;7.35;;;4.47;;
74152;SDS011;62505;46.070;14.492;2023-11-19T13:05:25;7.88;;;4.40;;
74152;SDS011;62505;46.070;14.492;2023-11-19T13:08:00;7.38;;;4.63;;
74152;SDS011;62505;46.070;14.492;2023-11-19T13:10:29;7.35;;;4.90;;
74152;SDS011;62505;46.070;14.492;2023-11-19T13:13:04;7.32;;;4.80;;
74152;SDS011;62505;46.070;14.492;2023-11-19T13:15:31;6.55;;;4.75;;
74152;SDS011;62505;46.070;14.492;2023-11-19T13:17:59;8.90;;;5.13;;
74152;SDS011;62505;46.070;14.492;2023-11-19T13:20:27;7.30;;;4.68;;
74152;SDS011;62505;46.070;14.492;2023-11-19T13:22:55;5.97;;;4.65;;
74152;SDS011;62505;46.070;14.492;2023-11-19T13:25:22;7.40;;;5.20;;
74152;SDS011;62505;46.070;14.492;2023-11-19T13:27:51;7.10;;;4.88;;
74152;SDS011;62505;46.070;14.492;2023-11-19T13:30:18;6.85;;;4.90;;
74152;SDS011;62505;46.070;14.492;2023-11-19T13:32:45;6.35;;;4.78;;
74152;SDS011;62505;46.070;14.492;2023-11-19T13:35:12;7.07;;;4.65;;
74152;SDS011;62505;46.070;14.492;2023-11-19T13:37:39;5.57;;;4.28;;
74152;SDS011;62505;46.070;14.492;2023-11-19T13:40:07;6.30;;;4.45;;
74152;SDS011;62505;46.070;14.492;2023-11-19T13:42:39;6.85;;;4.47;;
74152;SDS011;62505;46.070;14.492;2023-11-19T13:45:08;6.35;;;4.30;;
74152;SDS011;62505;46.070;14.492;2023-11-19T13:47:38;7.43;;;4.70;;
74152;SDS011;62505;46.070;14.492;2023-11-19T13:50:07;6.75;;;4.32;;
74152;SDS011;62505;46.070;14.492;2023-11-19T13:52:35;6.60;;;5.13;;
74152;SDS011;62505;46.070;14.492;2023-11-19T13:55:04;7.15;;;4.78;;
74152;SDS011;62505;46.070;14.492;2023-11-19T13:57:33;6.45;;;4.50;;
74152;SDS011;62505;46.070;14.492;2023-11-19T14:00:00;6.13;;;4.60;;
74152;SDS011;62505;46.070;14.492;2023-11-19T14:02:31;7.55;;;4.90;;
74152;SDS011;62505;46.070;14.492;2023-11-19T14:04:58;9.30;;;4.85;;
74152;SDS011;62505;46.070;14.492;2023-11-19T14:07:25;6.57;;;4.57;;
74152;SDS011;62505;46.070;14.492;2023-11-19T14:09:52;6.07;;;4.80;;
74152;SDS011;62505;46.070;14.492;2023-11-19T14:12:19;8.75;;;5.00;;
74152;SDS011;62505;46.070;14.492;2023-11-19T14:14:47;6.47;;;4.70;;
74152;SDS011;62505;46.070;14.492;2023-11-19T14:17:14;6.97;;;4.25;;
74152;SDS011;62505;46.070;14.492;2023-11-19T14:19:43;6.10;;;4.20;;
74152;SDS011;62505;46.070;14.492;2023-11-19T14:22:10;7.13;;;4.93;;
74152;SDS011;62505;46.070;14.492;2023-11-19T14:24:37;6.63;;;4.35;;
74152;SDS011;62505;46.070;14.492;2023-11-19T14:27:05;6.78;;;4.85;;
74152;SDS011;62505;46.070;14.492;2023-11-19T14:29:32;5.80;;;4.30;;
74152;SDS011;62505;46.070;14.492;2023-11-19T14:32:00;8.27;;;4.78;;
74152;SDS011;62505;46.070;14.492;2023-11-19T14:34:27;5.80;;;4.80;;
74152;SDS011;62505;46.070;14.492;2023-11-19T14:36:56;6.63;;;4.30;;
74152;SDS011;62505;46.070;14.492;2023-11-19T14:39:23;8.15;;;4.63;;
74152;SDS011;62505;46.070;14.492;2023-11-19T14:41:50;5.65;;;4.28;;
74152;SDS011;62505;46.070;14.492;2023-11-19T14:44:18;7.00;;;5.03;;